Time;durP1;ratioP1;P1;durP2;ratioP2;P2;SDS_P1;SDS_P2;PMS_P1;PMS_P2;Temp;Humidity;BMP_temperature;BMP_pressure;BME280_temperature;BME280_humidity;BME280_pressure;Samples;Min_cycle;Max_cycle;Signal;HPM_P1;HPM_P2
2021/12/07 00:00:42;;;;;;;4.95;4.40;;;19.70;40.20;;;23.40;26.93;100550.69;5115401;28;20051;-77
2021/12/07 00:03:08;;;;;;;5.63;4.60;;;19.70;40.20;;;23.38;26.90;100547.31;5115022;28;20054;-77
2021/12/07 00:05:35;;;;;;;6.50;4.43;;;19.70;40.20;;;23.39;26.72;100546.31;5098116;28;20043;-76
2021/12/07 00:08:03;;;;;;;4.85;4.35;;;19.70;40.20;;;23.35;26.74;100537.72;5133517;28;20054;-76
2021/12/07 00:10:30;;;;;;;5.82;4.97;;;19.70;40.20;;;23.39;26.74;100538.31;5097772;28;20103;-77
2021/12/07 00:12:58;;;;;;;5.13;4.65;;;19.70;40.20;;;23.37;26.86;100540.25;5114876;28;20063;-76
2021/12/07 00:15:25;;;;;;;5.38;4.60;;;19.70;40.20;;;23.35;26.85;100534.19;5114740;28;20048;-76
2021/12/07 00:17:54;;;;;;;5.28;4.65;;;19.70;40.20;;;23.37;26.75;100532.25;5114615;28;20134;-76
2021/12/07 00:20:22;;;;;;;5.80;4.70;;;19.70;40.30;;;23.36;26.98;100526.06;5113660;28;20051;-76
2021/12/07 00:22:54;;;;;;;5.30;4.68;;;19.70;40.20;;;23.33;26.86;100520.97;5114828;28;20039;-76
2021/12/07 00:25:20;;;;;;;5.15;4.50;;;19.70;40.20;;;23.39;26.73;100525.84;5097779;28;20398;-76
2021/12/07 00:27:45;;;;;;;5.18;4.35;;;19.70;40.20;;;23.38;26.81;100512.63;5080536;28;20505;-77
2021/12/07 00:30:12;;;;;;;5.55;4.43;;;19.70;40.30;;;23.39;26.86;100515.19;5113497;28;20075;-76
2021/12/07 00:32:44;;;;;;;4.72;4.22;;;19.70;40.20;;;23.37;26.92;100509.13;5096045;28;20051;-76
2021/12/07 00:35:24;;;;;;;5.15;4.22;;;19.70;40.20;;;23.34;26.76;100496.00;5080120;28;20044;-76
2021/12/07 00:37:56;;;;;;;5.30;4.15;;;19.70;40.20;;;23.35;26.83;100497.69;5116658;28;20126;-76
2021/12/07 00:40:24;;;;;;;5.35;4.38;;;19.70;40.30;;;23.38;26.79;100502.78;5114675;28;20053;-76
2021/12/07 00:42:54;;;;;;;5.22;4.28;;;19.70;40.20;;;23.39;26.71;100501.84;5114510;28;20054;-76
2021/12/07 00:45:22;;;;;;;4.78;4.13;;;19.70;40.30;;;23.38;26.76;100502.78;5133192;28;20051;-76
2021/12/07 00:47:52;;;;;;;4.93;4.05;;;19.70;40.30;;;23.34;26.94;100489.81;5113955;28;20047;-76
2021/12/07 00:50:24;;;;;;;5.10;4.20;;;19.70;40.20;;;23.37;26.68;100501.13;5114168;28;20554;-76
2021/12/07 00:52:50;;;;;;;5.15;4.47;;;19.70;40.20;;;23.33;26.91;100496.97;5114479;28;20055;-76
2021/12/07 00:55:23;;;;;;;4.65;4.13;;;19.70;40.30;;;23.36;26.95;100502.06;5096145;28;20056;-76
2021/12/07 00:57:52;;;;;;;5.22;4.40;;;19.70;40.20;;;23.38;26.73;100501.94;5099163;28;20043;-77
2021/12/07 01:00:25;;;;;;;4.85;4.25;;;19.70;40.20;;;23.39;26.90;100500.97;5117922;28;20047;-76
2021/12/07 01:02:53;;;;;;;4.45;3.85;;;19.70;40.20;;;23.40;26.82;100497.34;5136327;28;20133;-76
2021/12/07 01:05:27;;;;;;;4.60;4.18;;;19.70;40.20;;;23.39;26.85;100500.97;5083801;28;20043;-77
2021/12/07 01:08:13;;;;;;;5.15;4.10;;;19.70;40.20;;;23.33;26.88;100486.28;5118418;28;20130;-77
2021/12/07 01:24:42;;;;;;;4.30;3.88;;;19.70;40.30;;;23.34;27.01;100485.34;5103222;28;20074;-76
2021/12/07 01:27:12;;;;;;;5.35;4.38;;;19.70;40.30;;;23.33;26.66;100486.28;5103335;28;20051;-76
2021/12/07 01:29:40;;;;;;;4.80;4.07;;;19.70;40.30;;;23.35;26.94;100487.03;5117389;28;20097;-77
2021/12/07 01:45:53;;;;;;;5.15;4.32;;;19.70;40.30;;;23.35;27.15;100472.84;5103210;28;20047;-76
2021/12/07 01:51:14;;;;;;;5.13;4.20;;;19.70;40.20;;;23.33;26.93;100467.63;5119677;28;20551;-77
2021/12/07 02:01:54;;;;;;;4.43;3.80;;;19.70;40.30;;;23.31;26.88;100462.41;5119714;28;20137;-77
2021/12/07 02:04:20;;;;;;;5.45;4.28;;;19.70;40.30;;;23.33;26.93;100458.78;5099967;28;20450;-76
2021/12/07 02:06:47;;;;;;;4.60;4.20;;;19.70;40.30;;;23.33;27.10;100458.78;5100319;28;20051;-77
2021/12/07 02:09:13;;;;;;;5.43;4.17;;;19.70;40.30;;;23.30;27.04;100460.72;5099719;28;20050;-77
2021/12/07 02:11:47;;;;;;;4.10;3.55;;;19.70;40.30;;;23.31;26.88;100465.06;5099662;28;20488;-77
2021/12/07 02:14:17;;;;;;;5.03;4.18;;;19.70;40.30;;;23.34;27.04;100458.66;5100761;28;20047;-76
2021/12/07 02:16:50;;;;;;;4.97;3.88;;;19.60;40.20;;;23.33;26.91;100461.44;5099878;28;20104;-77
2021/12/07 02:19:17;;;;;;;4.60;4.10;;;19.60;40.30;;;23.34;26.85;100447.13;5099563;28;20047;-77
2021/12/07 02:21:44;;;;;;;4.78;4.07;;;19.70;40.30;;;23.31;27.07;100458.91;5099415;28;20123;-76
2021/12/07 02:24:16;;;;;;;4.88;4.22;;;19.60;40.30;;;23.34;26.85;100463.13;5100949;28;20068;-76
2021/12/07 02:26:42;;;;;;;4.60;4.20;;;19.60;40.30;;;23.31;27.04;100456.22;5099621;28;20078;-76
2021/12/07 02:29:09;;;;;;;4.45;4.03;;;19.60;40.30;;;23.33;26.91;100467.63;5114864;28;20047;-76
2021/12/07 02:31:35;;;;;;;4.65;4.13;;;19.60;40.30;;;23.33;26.98;100472.97;5134666;28;20445;-76
2021/12/07 02:34:04;;;;;;;4.65;4.15;;;19.70;40.30;;;23.32;26.76;100468.56;5099264;28;20495;-76
2021/12/07 02:36:30;;;;;;;5.10;4.45;;;19.70;40.30;;;23.30;26.88;100462.53;5098873;28;20637;-76
2021/12/07 02:38:57;;;;;;;4.50;4.10;;;19.70;40.30;;;23.36;26.81;100477.22;5099054;28;20095;-76
2021/12/07 02:41:23;;;;;;;5.13;4.25;;;19.60;40.20;;;23.35;26.97;100480.84;5097484;28;20043;-76
2021/12/07 02:43:49;;;;;;;5.03;4.45;;;19.70;40.30;;;23.35;26.88;100473.69;5099110;28;20050;-76
2021/12/07 02:46:16;;;;;;;4.88;4.22;;;19.70;40.30;;;23.33;26.98;100475.63;5115956;28;20051;-76
2021/12/07 02:48:42;;;;;;;5.60;4.53;;;19.70;40.20;;;23.37;26.97;100482.44;5115828;28;20043;-77
2021/12/07 02:51:08;;;;;;;4.30;3.90;;;19.70;40.20;;;23.33;26.82;100477.47;5099348;28;20050;-77
2021/12/07 02:53:35;;;;;;;4.35;3.55;;;19.70;40.20;;;23.33;27.00;100472.97;5115880;28;20054;-77
2021/12/07 02:56:03;;;;;;;5.13;3.92;;;19.70;40.20;;;23.37;26.99;100482.44;5098402;28;20070;-77
2021/12/07 02:58:35;;;;;;;4.88;4.32;;;19.70;40.30;;;23.34;26.85;100482.66;5081877;28;20115;-76
2021/12/07 03:01:11;;;;;;;4.82;4.03;;;19.70;40.20;;;23.37;26.80;100479.78;5098808;28;20055;-76
2021/12/07 03:07:03;;;;;;;4.65;4.15;;;19.70;40.20;;;23.36;26.84;100472.72;5101959;28;20463;-77
2021/12/07 03:26:24;;;;;;;4.35;3.53;;;19.80;40.10;;;23.42;26.96;100498.06;5101194;28;20051;-77
2021/12/07 03:28:54;;;;;;;4.32;3.92;;;19.80;40.10;;;23.43;26.84;100497.94;5115023;28;20051;-76
2021/12/07 03:31:26;;;;;;;5.15;4.20;;;19.80;40.10;;;23.44;26.95;100493.47;5099129;28;20062;-77
2021/12/07 03:33:54;;;;;;;3.85;3.40;;;19.80;40.00;;;23.45;26.98;100493.34;5098923;28;20043;-77
2021/12/07 03:36:21;;;;;;;4.93;4.05;;;19.80;40.00;;;23.45;26.92;100501.34;5098565;28;20043;-77
2021/12/07 03:38:48;;;;;;;4.25;3.75;;;19.80;40.00;;;23.46;26.84;100494.19;5098185;28;20517;-77
2021/12/07 03:41:16;;;;;;;4.78;3.83;;;19.90;40.10;;;23.47;26.94;100501.22;5077724;28;20048;-77
2021/12/07 03:43:42;;;;;;;4.75;3.95;;;19.90;40.00;;;23.47;26.71;100488.75;5133662;28;20043;-76
2021/12/07 03:46:09;;;;;;;4.47;3.95;;;19.90;40.00;;;23.49;26.79;100494.81;5080721;28;20051;-77
2021/12/07 03:48:35;;;;;;;4.20;3.75;;;19.90;40.00;;;23.52;26.84;100500.88;5098505;28;20051;-77
2021/12/07 03:51:04;;;;;;;4.65;4.10;;;19.90;40.00;;;23.51;26.73;100494.69;5098092;28;20047;-76
2021/12/07 03:53:30;;;;;;;4.32;3.72;;;19.90;40.00;;;23.54;26.65;100496.25;5133857;28;20167;-76
2021/12/07 03:55:57;;;;;;;4.65;4.15;;;19.90;39.90;;;23.49;26.98;100494.81;5098106;28;20055;-77
2021/12/07 03:58:26;;;;;;;4.20;3.80;;;19.90;40.00;;;23.54;26.92;100499.78;5098077;28;20043;-77
2021/12/07 04:00:52;;;;;;;4.47;3.65;;;20.00;39.90;;;23.55;26.85;100501.47;5098003;28;20050;-77
2021/12/07 04:03:20;;;;;;;5.28;4.32;;;19.90;39.90;;;23.54;26.83;100490.91;5081170;28;20039;-77
2021/12/07 04:05:52;;;;;;;5.07;4.38;;;19.90;39.80;;;23.55;26.80;100500.63;5098245;28;20043;-77
2021/12/07 04:08:25;;;;;;;4.97;4.25;;;19.90;39.80;;;23.56;26.69;100505.00;5099154;28;20050;-77
2021/12/07 04:10:54;;;;;;;4.75;4.00;;;20.00;39.90;;;23.58;26.79;100503.06;5098329;28;20467;-76
2021/12/07 04:13:20;;;;;;;5.13;4.53;;;20.00;39.80;;;23.60;26.87;100512.63;5098409;28;20044;-76
2021/12/07 04:15:47;;;;;;;4.05;3.65;;;20.00;39.90;;;23.58;26.70;100505.72;5098142;28;20054;-77
2021/12/07 04:18:13;;;;;;;4.68;3.85;;;20.00;39.80;;;23.60;26.73;100511.78;5080437;28;20044;-77
2021/12/07 04:20:39;;;;;;;4.90;4.32;;;20.00;39.80;;;23.61;26.66;100513.50;5097697;28;20051;-77
2021/12/07 04:23:06;;;;;;;4.55;3.90;;;20.00;39.80;;;23.59;26.74;100512.75;5097746;28;20050;-76
2021/12/07 04:25:32;;;;;;;4.45;4.00;;;20.00;39.80;;;23.58;26.65;100508.41;5115053;28;20054;-76
2021/12/07 04:27:59;;;;;;;4.40;4.00;;;20.00;39.80;;;23.62;26.79;100510.72;5114717;28;20058;-77
2021/12/07 04:30:31;;;;;;;4.78;4.28;;;20.00;39.80;;;23.60;26.49;100512.63;5133092;28;20092;-77
2021/12/07 04:32:58;;;;;;;5.00;4.15;;;20.00;39.80;;;23.62;26.63;100517.84;5116797;28;20047;-77
2021/12/07 04:35:26;;;;;;;3.85;3.42;;;20.00;39.80;;;23.61;26.54;100514.34;5118568;28;20081;-77
2021/12/07 04:37:54;;;;;;;3.78;3.38;;;20.00;39.80;;;23.64;26.55;100514.09;5118249;28;20046;-77
2021/12/07 04:40:26;;;;;;;4.85;4.28;;;20.00;39.70;;;23.61;26.86;100514.34;5118267;28;20099;-76
2021/12/07 04:42:54;;;;;;;4.32;3.92;;;20.00;39.80;;;23.64;26.53;100510.59;5101463;28;20046;-76
2021/12/07 04:45:37;;;;;;;5.32;4.45;;;20.00;39.70;;;23.63;26.44;100506.22;5100979;28;20043;-76
2021/12/07 04:48:29;;;;;;;4.60;3.80;;;20.00;39.70;;;23.63;26.72;100507.06;5120242;28;20134;-76
2021/12/07 04:59:11;;;;;;;4.88;4.13;;;20.00;39.70;;;23.65;26.62;100513.13;5120768;28;20071;-76
2021/12/07 05:01:37;;;;;;;4.78;4.22;;;20.00;39.70;;;23.62;26.71;100505.38;5136136;28;20118;-76
2021/12/07 05:04:11;;;;;;;4.22;3.67;;;20.00;39.90;;;23.61;26.68;100502.81;5100791;28;20596;-76
2021/12/07 05:06:44;;;;;;;5.07;4.28;;;20.00;39.70;;;23.63;26.68;100516.88;5117948;28;20040;-77
2021/12/07 05:09:33;;;;;;;4.60;3.92;;;20.00;39.70;;;23.64;26.58;100514.09;5119178;28;20538;-76
2021/12/07 05:14:31;;;;;;;4.43;3.80;;;20.00;39.70;;;23.61;26.65;100509.00;5117633;28;20043;-76
2021/12/07 05:23:55;;;;;;;4.72;4.13;;;20.00;39.70;;;23.61;26.70;100506.34;5117625;28;20043;-76
2021/12/07 05:38:30;;;;;;;4.50;3.75;;;20.00;39.70;;;23.64;26.56;100500.75;5136128;28;20048;-76
2021/12/07 05:40:56;;;;;;;4.75;3.80;;;20.00;39.70;;;23.64;26.61;100497.25;5085386;28;20497;-76
2021/12/07 05:43:21;;;;;;;4.50;4.07;;;20.00;39.70;;;23.66;26.66;100500.63;5099771;28;20051;-76
2021/12/07 05:45:47;;;;;;;4.82;4.00;;;20.00;39.70;;;23.65;26.46;100499.75;5100677;28;20071;-76
2021/12/07 05:48:13;;;;;;;4.78;4.18;;;20.00;39.70;;;23.64;26.63;100498.09;5116774;28;20134;-76
2021/12/07 05:50:41;;;;;;;4.57;3.92;;;20.00;39.70;;;23.65;26.71;100510.44;5100245;28;20059;-76
2021/12/07 05:53:08;;;;;;;4.72;4.07;;;20.00;39.70;;;23.66;26.73;100504.16;5115881;28;20433;-76
2021/12/07 05:55:35;;;;;;;4.20;3.78;;;20.00;39.70;;;23.70;26.55;100518.09;5116959;28;20044;-76
2021/12/07 05:58:04;;;;;;;3.80;3.42;;;20.10;39.70;;;23.66;26.63;100522.84;5116695;28;20039;-76
2021/12/07 06:00:33;;;;;;;4.82;3.80;;;20.00;39.70;;;23.71;26.47;100524.31;5099894;28;20058;-76
2021/12/07 06:03:06;;;;;;;4.28;3.80;;;20.00;39.70;;;23.66;26.80;100525.50;5116606;28;20039;-76
2021/12/07 06:05:34;;;;;;;3.90;3.60;;;20.10;39.80;;;23.70;26.61;100527.94;5117166;28;20043;-77
2021/12/07 06:08:01;;;;;;;4.32;3.92;;;20.10;39.70;;;23.70;26.60;100528.78;5116504;28;20050;-76
2021/12/07 06:10:29;;;;;;;4.38;3.85;;;20.00;39.60;;;23.70;26.61;100527.94;5116673;28;20043;-77
2021/12/07 06:12:54;;;;;;;4.10;3.70;;;20.10;39.70;;;23.71;26.49;100534.97;5099638;28;20062;-77
2021/12/07 06:15:23;;;;;;;4.78;4.28;;;20.10;39.70;;;23.71;26.40;100529.66;5100200;28;20047;-77
2021/12/07 06:17:52;;;;;;;5.20;4.15;;;20.10;39.70;;;23.71;26.54;100530.47;5099905;28;20043;-77
2021/12/07 06:20:20;;;;;;;4.85;4.25;;;20.10;39.70;;;23.72;26.60;100545.50;5099456;28;20050;-76
2021/12/07 06:22:45;;;;;;;4.63;3.90;;;20.10;39.70;;;23.72;26.56;100542.00;5082500;28;20055;-76
2021/12/07 06:25:12;;;;;;;4.85;4.00;;;20.10;39.70;;;23.71;26.52;100551.84;5081489;28;20048;-77
2021/12/07 06:27:39;;;;;;;5.00;4.13;;;20.10;39.70;;;23.71;26.65;100549.16;5081155;28;20066;-77
2021/12/07 06:30:08;;;;;;;4.03;3.63;;;20.10;39.70;;;23.70;26.73;100551.97;5082590;28;20130;-76
2021/12/07 06:32:34;;;;;;;5.60;4.20;;;20.10;39.70;;;23.72;26.52;100558.03;5099091;28;20059;-76
2021/12/07 06:34:59;;;;;;;4.68;4.03;;;20.10;39.60;;;23.72;26.44;100558.84;5114965;28;20116;-76
2021/12/07 06:37:25;;;;;;;4.00;3.60;;;20.10;39.60;;;23.73;26.52;100557.06;5114372;28;20483;-76
2021/12/07 06:39:51;;;;;;;5.28;4.53;;;20.10;39.60;;;23.73;26.42;100559.72;5115583;28;20051;-77
2021/12/07 06:42:17;;;;;;;4.65;3.90;;;20.10;39.60;;;23.74;26.50;100567.63;5099030;28;20047;-76
2021/12/07 06:44:43;;;;;;;4.25;3.80;;;20.10;39.70;;;23.73;26.45;100560.56;5099119;28;20134;-76
2021/12/07 06:47:09;;;;;;;4.93;4.28;;;20.10;39.60;;;23.73;26.51;100560.56;5098738;28;20401;-76
2021/12/07 06:49:35;;;;;;;4.78;4.25;;;20.10;39.60;;;23.72;26.53;100561.53;5115987;28;20139;-76
2021/12/07 06:52:02;;;;;;;4.60;4.05;;;20.10;39.60;;;23.74;26.61;100562.28;5114430;28;20054;-76
2021/12/07 06:54:28;;;;;;;4.00;3.60;;;20.10;39.50;;;23.75;26.53;100557.78;5098349;28;20071;-76
2021/12/07 06:56:54;;;;;;;4.13;3.50;;;20.10;39.60;;;23.74;26.36;100562.28;5115862;28;20081;-76
2021/12/07 06:59:20;;;;;;;4.43;3.88;;;20.10;39.50;;;23.74;26.39;100570.28;5116094;28;20047;-77
2021/12/07 07:01:47;;;;;;;4.43;3.97;;;20.10;39.50;;;23.74;26.44;100572.97;5134873;28;20043;-76
2021/12/07 07:04:14;;;;;;;4.28;3.85;;;20.10;39.50;;;23.73;26.44;100581.09;5134250;28;20040;-76
2021/12/07 07:06:41;;;;;;;4.28;3.88;;;20.10;39.50;;;23.72;26.61;100574.88;5116053;28;20051;-76
2021/12/07 07:09:09;;;;;;;4.60;4.15;;;20.10;39.50;;;23.72;26.59;100576.69;5099230;28;20099;-76
2021/12/07 07:11:34;;;;;;;4.60;3.83;;;20.10;39.50;;;23.74;26.41;100585.44;5098629;28;20051;-76
2021/12/07 07:14:01;;;;;;;4.47;3.75;;;20.10;39.50;;;23.73;26.43;100589.09;5115600;28;20100;-76
2021/12/07 07:16:28;;;;;;;4.13;3.72;;;20.10;39.50;;;23.71;26.40;100586.53;5115750;28;20047;-76
2021/12/07 07:18:55;;;;;;;4.28;3.88;;;20.10;39.50;;;23.72;26.53;100585.56;5114866;28;20058;-76
2021/12/07 07:21:21;;;;;;;4.43;3.90;;;20.10;39.50;;;23.74;26.49;100596.13;5098416;28;20047;-76
2021/12/07 07:23:47;;;;;;;4.43;3.95;;;20.10;39.50;;;23.74;26.46;100598.78;5113837;28;20046;-76
2021/12/07 07:26:13;;;;;;;4.05;3.65;;;20.10;39.50;;;23.67;26.54;100593.94;5133969;28;20096;-76
2021/12/07 07:28:39;;;;;;;4.35;3.88;;;20.10;39.50;;;23.76;26.20;100610.22;5097958;28;20043;-77
2021/12/07 07:31:07;;;;;;;4.28;3.88;;;20.10;39.60;;;23.76;26.51;100610.22;5115232;28;20043;-76
2021/12/07 07:33:32;;;;;;;5.05;4.00;;;20.10;39.60;;;23.73;26.43;100600.59;5115599;28;20130;-76
2021/12/07 07:35:58;;;;;;;5.97;4.53;;;20.10;39.60;;;23.72;26.61;100608.75;5080987;28;20047;-76
2021/12/07 07:38:24;;;;;;;6.00;4.25;;;20.10;39.60;;;23.74;26.44;100606.78;5115357;28;20134;-76
2021/12/07 07:40:51;;;;;;;4.95;4.20;;;20.10;39.60;;;23.73;26.49;100608.63;5098109;28;20039;-76
2021/12/07 07:43:21;;;;;;;4.78;4.18;;;20.10;39.60;;;23.71;26.41;100605.22;5099499;28;20401;-76
2021/12/07 07:45:54;;;;;;;4.68;4.15;;;20.10;40.20;;;23.72;26.38;100611.41;5083485;28;20130;-76
2021/12/07 07:48:21;;;;;;;4.43;3.95;;;20.10;39.60;;;23.72;26.39;100609.56;5115172;28;20367;-76
2021/12/07 07:50:50;;;;;;;5.40;4.30;;;20.10;39.60;;;23.72;26.44;100612.25;5098236;28;20115;-76
2021/12/07 07:53:16;;;;;;;4.78;4.07;;;20.10;39.60;;;23.74;26.55;100614.81;5114840;28;20039;-76
2021/12/07 07:55:43;;;;;;;4.72;3.95;;;20.10;40.20;;;23.74;26.63;100620.13;5114951;28;20039;-77
2021/12/07 07:58:10;;;;;;;4.97;3.85;;;20.10;39.60;;;23.74;26.50;100614.81;5113508;28;20039;-77
2021/12/07 08:00:38;;;;;;;4.78;4.10;;;20.10;39.60;;;23.76;26.47;100620.91;5114975;28;20058;-76
2021/12/07 08:03:03;;;;;;;3.95;3.55;;;20.10;39.60;;;23.76;26.41;100621.72;5097964;28;20054;-76
2021/12/07 08:05:30;;;;;;;4.28;3.88;;;20.10;39.60;;;23.75;26.67;100622.69;5133196;27;20044;-76
2021/12/07 08:07:56;;;;;;;4.28;3.78;;;20.10;39.70;;;23.75;26.46;100616.50;5097506;28;20479;-76
2021/12/07 08:10:31;;;;;;;5.10;4.10;;;20.10;39.70;;;23.71;26.54;100609.72;5136885;28;20153;-76
2021/12/07 08:13:00;;;;;;;4.22;3.53;;;20.10;39.60;;;23.76;26.43;100618.22;5136895;28;20054;-76
2021/12/07 08:15:30;;;;;;;4.22;3.83;;;20.10;39.60;;;23.72;26.60;100624.75;5099955;28;20454;-76
2021/12/07 08:17:57;;;;;;;4.65;4.22;;;20.10;39.60;;;23.74;26.43;100629.03;5136813;28;20043;-76
2021/12/07 08:20:27;;;;;;;4.70;4.03;;;20.10;39.60;;;23.73;26.58;100619.28;5101810;28;20141;-76
2021/12/07 08:22:54;;;;;;;4.22;3.70;;;20.10;39.60;;;23.75;26.57;100624.53;5101240;28;20047;-76
2021/12/07 08:25:20;;;;;;;5.47;3.95;;;20.10;39.60;;;23.77;26.52;100627.91;5118398;28;20051;-76
2021/12/07 08:27:47;;;;;;;3.88;3.33;;;20.10;39.60;;;23.75;26.49;100628.03;5117030;28;20052;-77
2021/12/07 08:30:15;;;;;;;5.30;4.18;;;20.10;39.60;;;23.73;26.42;100629.13;5116260;28;20482;-76
2021/12/07 08:32:45;;;;;;;4.70;4.10;;;20.10;39.60;;;23.78;26.29;100637.63;5115988;28;20134;-76
2021/12/07 08:35:16;;;;;;;5.10;3.83;;;20.10;39.60;;;23.76;26.59;100628.91;5101132;28;20513;-76
2021/12/07 08:37:44;;;;;;;4.30;3.72;;;20.10;39.60;;;23.78;26.38;100637.63;5117853;28;20054;-76
2021/12/07 08:40:11;;;;;;;4.07;3.70;;;20.10;39.60;;;23.76;26.53;100628.91;5117328;28;20081;-76
2021/12/07 08:42:37;;;;;;;4.40;3.90;;;20.10;39.60;;;23.77;26.48;100630.59;5136287;28;20047;-76
2021/12/07 08:45:08;;;;;;;7.38;4.28;;;20.10;39.50;;;23.78;26.30;100630.47;5116372;28;20514;-76
2021/12/07 08:47:35;;;;;;;4.65;4.13;;;20.20;39.60;;;23.77;26.51;100630.59;5099121;28;20056;-76
2021/12/07 08:50:05;;;;;;;4.15;3.70;;;20.20;39.50;;;23.78;26.54;100640.31;5100355;28;20478;-76
2021/12/07 08:52:31;;;;;;;4.13;3.72;;;20.20;39.50;;;23.80;26.34;100641.03;5117778;28;20489;-76
2021/12/07 09:00:33;;;;;;;4.93;3.85;;;20.20;39.40;;;23.79;26.34;100642.84;5085148;28;20051;-76
2021/12/07 09:02:59;;;;;;;4.20;3.80;;;20.20;39.40;;;23.80;26.52;100647.22;5116745;28;20052;-77
2021/12/07 09:05:25;;;;;;;4.95;4.15;;;20.30;39.50;;;23.79;26.54;100642.00;5116123;28;20047;-76
2021/12/07 09:07:51;;;;;;;4.65;4.10;;;20.20;39.40;;;23.82;26.33;100647.13;5117423;28;20055;-76
2021/12/07 09:10:18;;;;;;;5.38;4.10;;;20.20;39.40;;;23.83;26.53;100657.69;5117023;28;20633;-76
2021/12/07 09:12:44;;;;;;;4.68;4.20;;;20.20;39.40;;;23.82;26.55;100661.34;5099088;28;20043;-76
2021/12/07 09:15:12;;;;;;;5.32;4.15;;;20.20;39.40;;;23.83;26.53;100665.69;5115415;28;20526;-76
2021/12/07 09:17:38;;;;;;;5.60;4.18;;;20.20;39.40;;;23.83;26.27;100665.69;5099212;28;20054;-76
2021/12/07 09:20:09;;;;;;;4.38;3.97;;;20.30;39.40;;;23.80;26.47;100673.91;5101618;28;20478;-77
2021/12/07 09:22:35;;;;;;;4.70;4.03;;;20.20;39.40;;;23.85;26.38;100684.28;5085074;28;20148;-76
2021/12/07 09:25:02;;;;;;;5.00;4.03;;;20.20;39.40;;;23.80;26.38;100671.25;5081890;28;20197;-76
2021/12/07 09:27:27;;;;;;;4.40;3.72;;;20.20;39.40;;;23.87;26.63;100685.00;5117210;28;20043;-76
2021/12/07 09:29:53;;;;;;;4.47;3.85;;;20.20;39.40;;;23.83;26.30;100672.88;5099952;28;20050;-76
2021/12/07 09:32:21;;;;;;;5.03;4.35;;;20.20;39.40;;;23.86;26.49;100675.31;5100101;28;20124;-76
2021/12/07 09:34:46;;;;;;;4.00;3.67;;;20.20;39.40;;;23.84;26.44;100674.59;5135876;28;20047;-76
2021/12/07 09:37:12;;;;;;;4.13;3.60;;;20.20;39.40;;;23.84;26.43;100662.06;5117371;28;20058;-76
2021/12/07 09:39:38;;;;;;;4.72;3.80;;;20.20;39.50;;;23.85;26.21;100673.59;5116920;28;20051;-77
2021/12/07 09:42:04;;;;;;;6.10;4.20;;;20.30;39.50;;;23.88;26.45;100677.88;5116943;28;20050;-77
2021/12/07 09:44:30;;;;;;;4.40;3.85;;;20.20;39.40;;;23.86;26.32;100678.81;5099980;28;20111;-77
2021/12/07 09:46:56;;;;;;;4.53;4.00;;;20.20;39.40;;;23.83;26.40;100663.03;5135280;28;20047;-76
2021/12/07 09:49:22;;;;;;;4.88;4.30;;;20.20;39.40;;;23.84;26.28;100658.56;5116863;28;20043;-77
2021/12/07 09:51:48;;;;;;;4.13;3.50;;;20.30;39.40;;;23.86;26.35;100656.63;5117132;28;20399;-77
2021/12/07 09:54:14;;;;;;;4.63;3.83;;;20.20;39.40;;;23.86;26.33;100659.28;5117375;28;20383;-76
2021/12/07 09:56:40;;;;;;;4.40;3.75;;;20.30;39.40;;;23.86;26.41;100668.13;5117082;28;20039;-77
2021/12/07 09:59:09;;;;;;;5.20;4.25;;;20.30;39.40;;;23.86;26.34;100676.16;5135039;28;20051;-76
2021/12/07 10:01:40;;;;;;;4.35;3.95;;;20.30;39.50;;;23.86;26.30;100665.47;5096317;28;20446;-76
2021/12/07 10:04:06;;;;;;;4.55;3.95;;;20.30;39.40;;;23.87;26.53;100668.97;5099547;28;20122;-76
2021/12/07 10:06:32;;;;;;;4.60;4.07;;;20.30;39.40;;;23.89;26.19;100675.06;5099498;28;20043;-77
2021/12/07 10:08:57;;;;;;;4.78;4.05;;;20.20;39.40;;;23.85;26.45;100665.59;5116958;28;20125;-76
2021/12/07 10:11:24;;;;;;;4.10;3.67;;;20.20;39.40;;;23.83;26.11;100665.69;5116386;28;20440;-76
2021/12/07 10:13:51;;;;;;;4.68;4.13;;;20.20;39.40;;;23.86;26.41;100670.81;5116644;28;20085;-76
2021/12/07 10:16:20;;;;;;;5.53;4.18;;;20.20;39.40;;;23.88;26.34;100672.53;5116394;28;20445;-77
2021/12/07 10:18:47;;;;;;;5.75;4.30;;;20.30;39.40;;;23.87;26.27;100650.28;5099429;28;20047;-76
2021/12/07 10:21:25;;;;;;;4.32;3.90;;;20.20;39.40;;;23.84;26.25;100651.38;5115708;28;20047;-76
2021/12/07 10:24:02;;;;;;;4.30;3.67;;;20.30;39.40;;;23.86;26.59;100653.94;5116554;28;20047;-76
2021/12/07 10:26:35;;;;;;;5.03;4.13;;;20.30;39.40;;;23.90;26.40;100654.56;5116768;28;20039;-77
2021/12/07 10:29:20;;;;;;;4.50;4.07;;;20.30;39.40;;;23.88;26.42;100641.31;5098987;27;20490;-76
2021/12/07 10:32:01;;;;;;;4.43;3.83;;;20.30;39.40;;;23.88;26.44;100640.47;5098819;28;20406;-77
2021/12/07 10:34:33;;;;;;;4.30;3.85;;;20.30;39.40;;;23.91;26.42;100638.41;5116438;28;20067;-77
2021/12/07 10:37:11;;;;;;;4.72;4.22;;;20.30;39.30;;;23.87;26.30;100628.94;5099292;28;20478;-76
2021/12/07 10:39:51;;;;;;;4.90;4.10;;;20.30;39.30;;;23.89;26.51;100627.00;5116252;28;20048;-77
2021/12/07 10:42:26;;;;;;;4.82;4.20;;;20.30;39.40;;;23.90;26.34;100619.84;5098806;28;20051;-77
2021/12/07 10:44:54;;;;;;;5.18;4.50;;;20.30;39.30;;;23.89;26.20;100620.81;5097023;28;20047;-77
2021/12/07 10:47:23;;;;;;;4.60;4.20;;;20.30;39.30;;;23.88;26.44;100619.97;5115566;28;20039;-77
2021/12/07 10:49:57;;;;;;;5.35;4.25;;;20.30;39.30;;;23.91;26.19;100630.41;5115803;28;20055;-77
2021/12/07 10:52:42;;;;;;;4.25;3.85;;;20.30;39.30;;;23.90;26.18;100634.03;5113680;28;20063;-77
2021/12/07 10:55:19;;;;;;;4.85;3.78;;;20.30;39.30;;;23.91;26.33;100637.56;5099124;28;20180;-76
2021/12/07 10:57:52;;;;;;;4.70;3.97;;;20.30;39.30;;;23.90;26.58;100638.53;5081223;28;20056;-77
2021/12/07 11:00:22;;;;;;;4.38;3.97;;;20.30;39.80;;;23.92;26.43;100639.25;5134376;28;20054;-77
2021/12/07 11:03:09;;;;;;;5.07;4.38;;;20.30;39.20;;;23.90;26.40;100639.38;5114917;28;20059;-77
2021/12/07 11:05:41;;;;;;;5.05;4.28;;;20.30;39.30;;;23.92;26.32;100639.25;5114509;28;20040;-77
2021/12/07 11:08:11;;;;;;;4.15;3.60;;;20.30;39.30;;;23.89;26.44;100640.38;5115651;28;20130;-77
2021/12/07 11:10:42;;;;;;;5.43;4.30;;;20.30;39.30;;;23.92;26.38;100645.44;5114818;28;20134;-77
2021/12/07 11:13:16;;;;;;;5.88;4.63;;;20.30;39.30;;;23.91;26.25;100642.91;5098578;28;20403;-76
2021/12/07 11:15:56;;;;;;;5.80;4.22;;;20.30;39.40;;;23.92;26.28;100645.44;5081809;28;20440;-77
2021/12/07 11:18:35;;;;;;;4.18;3.78;;;20.30;39.30;;;23.90;26.23;100643.88;5114369;28;20043;-75
2021/12/07 11:21:14;;;;;;;4.97;4.28;;;20.30;39.30;;;23.91;26.24;100645.59;5115354;28;20047;-75
2021/12/07 11:23:51;;;;;;;5.60;4.45;;;20.30;39.30;;;23.85;26.22;100636.22;5114962;28;20115;-76
2021/12/07 11:31:51;;;;;;;4.78;4.28;;;20.30;39.20;;;23.92;26.37;100640.09;5082718;28;20050;-76
2021/12/07 11:34:29;;;;;;;4.97;4.30;;;20.30;39.20;;;23.90;26.38;100636.69;5133512;28;20076;-75
2021/12/07 11:37:07;;;;;;;4.60;3.83;;;20.30;39.20;;;23.92;26.25;100633.91;5097382;28;20047;-77
2021/12/07 11:39:47;;;;;;;4.57;4.05;;;20.30;39.20;;;23.90;26.25;100626.03;5098245;28;20043;-77
2021/12/07 11:42:27;;;;;;;8.82;3.72;;;20.30;39.20;;;23.91;26.42;100621.56;5098091;28;20050;-77
2021/12/07 11:45:12;;;;;;;5.00;4.40;;;20.30;39.20;;;23.91;26.19;100616.22;5097546;28;20080;-78
2021/12/07 11:47:46;;;;;;;5.30;4.20;;;20.30;39.30;;;23.89;26.04;100611.00;5133186;28;20070;-77
2021/12/07 11:50:32;;;;;;;5.13;4.55;;;20.30;39.30;;;23.92;26.34;100628.56;5133167;28;20070;-78
2021/12/07 11:53:06;;;;;;;5.32;4.15;;;20.30;39.30;;;23.90;26.26;100628.69;5112908;28;20063;-77
2021/12/07 11:55:35;;;;;;;5.55;4.55;;;20.30;39.30;;;23.91;26.17;100629.56;5077803;28;20043;-78
2021/12/07 11:58:04;;;;;;;4.22;3.67;;;20.30;39.30;;;23.91;26.12;100622.41;5094686;28;20122;-78
2021/12/07 12:00:37;;;;;;;5.68;4.10;;;20.30;39.30;;;23.91;26.19;100624.22;5094611;28;20059;-77